createdAt,value
2023-08-29T00:00:09.847Z,98983.50
2023-08-29T00:00:41.909Z,98988.50
2023-08-29T00:01:14.749Z,98999.25
2023-08-29T00:01:48.472Z,98995.19
2023-08-29T00:02:20.499Z,98998.91
2023-08-29T00:02:54.883Z,98986.38
2023-08-29T00:03:29.665Z,98988.97
2023-08-29T00:04:01.679Z,98990.63
2023-08-29T00:04:33.723Z,98992.72
2023-08-29T00:05:05.858Z,98999.91
2023-08-29T00:05:38.094Z,98991.25
2023-08-29T00:06:10.043Z,98999.06
2023-08-29T00:06:42.822Z,99001.81
2023-08-29T00:07:14.728Z,98999.88
2023-08-29T00:07:47.225Z,98994.16
2023-08-29T00:08:19.127Z,99012.44
2023-08-29T00:08:51.092Z,99010.53
2023-08-29T00:09:23.061Z,99010.75
2023-08-29T00:09:55.047Z,99015.13
2023-08-29T00:10:27.025Z,99013.50
2023-08-29T00:10:58.951Z,99007.78
2023-08-29T00:11:30.845Z,99006.84
2023-08-29T00:12:04.829Z,99004.91
2023-08-29T00:12:36.764Z,99007.16
2023-08-29T00:13:08.696Z,99002.44
2023-08-29T00:13:40.650Z,99010.09
2023-08-29T00:14:12.636Z,99004.56
2023-08-29T00:14:44.540Z,99008.16
2023-08-29T00:15:16.450Z,99011.56
2023-08-29T00:15:48.401Z,99015.75
2023-08-29T00:16:20.509Z,99020.06
2023-08-29T00:16:53.022Z,99022.16
2023-08-29T00:17:25.063Z,99019.25
2023-08-29T00:17:57.008Z,99016.97
2023-08-29T00:18:28.920Z,99024.47
2023-08-29T00:19:01.170Z,99021.69
2023-08-29T00:19:33.090Z,99024.16
2023-08-29T00:20:05.429Z,99020.06
2023-08-29T00:20:37.403Z,99027.72
2023-08-29T00:21:09.319Z,99030.31
2023-08-29T00:21:41.304Z,99029.81
2023-08-29T00:22:13.245Z,99029.81
2023-08-29T00:22:45.177Z,99029.81
2023-08-29T00:23:17.065Z,99032.75
2023-08-29T00:23:49.695Z,99035.41
2023-08-29T00:24:21.643Z,99031.81
2023-08-29T00:24:53.767Z,99038.28
2023-08-29T00:25:25.694Z,99035.53
2023-08-29T00:25:57.598Z,99029.50
2023-08-29T00:26:29.564Z,99031.94
2023-08-29T00:27:01.463Z,99031.25
2023-08-29T00:27:33.365Z,99029.63
2023-08-29T00:28:05.675Z,99026.06
2023-08-29T00:28:37.857Z,99028.50
2023-08-29T00:29:09.764Z,99021.34
2023-08-29T00:29:44.111Z,99026.88
2023-08-29T00:30:16.043Z,99028.50
2023-08-29T00:30:47.953Z,99028.19
2023-08-29T00:31:19.957Z,99026.38
2023-08-29T00:31:51.903Z,99026.69
2023-08-29T00:32:23.905Z,99033.34
2023-08-29T00:32:55.939Z,99031.41
2023-08-29T00:33:27.955Z,99025.06
2023-08-29T00:33:59.869Z,99027.81
2023-08-29T00:34:31.838Z,99031.81
2023-08-29T00:35:04.929Z,99034.25
2023-08-29T00:35:37.814Z,99043.09
2023-08-29T00:36:09.800Z,99047.97
2023-08-29T00:36:41.718Z,99049.63
2023-08-29T00:37:13.625Z,99049.63
2023-08-29T00:37:45.547Z,99045.53
2023-08-29T00:38:17.450Z,99047.16
2023-08-29T00:38:49.369Z,99045.53
2023-08-29T00:39:21.526Z,99053.28
2023-08-29T00:39:53.440Z,99054.44
2023-08-29T00:40:31.829Z,99058.22
2023-08-29T00:41:03.715Z,99058.81
2023-08-29T00:41:35.688Z,99067.66
2023-08-29T00:42:07.596Z,99059.66
2023-08-29T00:42:39.499Z,99066.00
2023-08-29T00:43:11.411Z,99057.72
2023-08-29T00:43:43.307Z,99052.19
2023-08-29T00:44:15.321Z,99053.50
2023-08-29T00:44:47.244Z,99051.88
2023-08-29T00:45:19.157Z,99055.97
2023-08-29T00:45:51.149Z,99055.13
2023-08-29T00:46:23.848Z,99054.31
2023-08-29T00:46:56.154Z,99050.25
2023-08-29T00:47:28.816Z,99038.38
2023-08-29T00:48:01.782Z,99043.38
2023-08-29T00:48:34.252Z,99039.28
2023-08-29T00:49:06.198Z,99042.88
2023-08-29T00:49:38.215Z,99044.81
2023-08-29T00:50:10.555Z,99053.09
2023-08-29T00:50:42.925Z,99042.69
2023-08-29T00:51:14.839Z,99047.91
2023-08-29T00:51:47.674Z,99041.88
2023-08-29T00:52:20.103Z,99042.50
2023-08-29T00:52:55.590Z,99053.94
2023-08-29T00:53:28.553Z,99044.50
2023-08-29T00:54:02.170Z,99053.09
2023-08-29T00:54:34.161Z,99054.75
2023-08-29T00:55:06.546Z,99054.97
2023-08-29T00:55:38.543Z,99060.66
2023-08-29T00:56:11.223Z,99060.66
2023-08-29T00:56:44.461Z,99056.59
2023-08-29T00:57:16.375Z,99057.19
2023-08-29T00:57:49.104Z,99060.50
2023-08-29T00:58:21.062Z,99062.13
2023-08-29T00:58:54.144Z,99067.00
2023-08-29T00:59:26.375Z,99071.72
2023-08-29T00:59:58.442Z,99066.19
2023-08-29T01:00:31.578Z,99073.69
2023-08-29T01:01:04.090Z,99083.59
2023-08-29T01:01:37.255Z,99083.78
2023-08-29T01:02:09.284Z,99087.06
2023-08-29T01:02:41.272Z,99086.06
2023-08-29T01:03:13.377Z,99091.56
2023-08-29T01:03:45.993Z,99091.56
2023-08-29T01:04:17.926Z,99083.59
2023-08-29T01:04:49.842Z,99084.91
2023-08-29T01:05:22.084Z,99082.97
2023-08-29T01:05:53.996Z,99081.34
2023-08-29T01:06:26.657Z,99079.22
2023-08-29T01:06:59.348Z,99076.84
2023-08-29T01:07:31.472Z,99079.94
2023-08-29T01:08:05.550Z,99071.25
2023-08-29T01:08:37.638Z,99089.97
2023-08-29T01:09:10.075Z,99089.47
2023-08-29T01:09:42.106Z,99094.50
2023-08-29T01:10:14.190Z,99098.41
2023-08-29T01:11:20.399Z,99103.63
2023-08-29T01:12:17.658Z,99103.63
2023-08-29T01:12:59.153Z,99106.88
2023-08-29T01:14:03.963Z,99107.69
2023-08-29T01:15:00.134Z,99111.09
2023-08-29T01:15:33.718Z,99108.94
2023-08-29T01:16:09.115Z,99113.34
2023-08-29T01:16:54.158Z,99112.72
2023-08-29T01:17:37.242Z,99112.41
2023-08-29T01:18:14.207Z,99100.66
2023-08-29T01:18:47.924Z,99107.09
2023-08-29T01:19:22.288Z,99098.22
2023-08-29T01:19:55.096Z,99089.69
2023-08-29T01:20:28.924Z,99087.56
2023-08-29T01:21:07.447Z,99094.53
2023-08-29T01:22:06.877Z,99089.81
2023-08-29T01:22:46.522Z,99083.59
2023-08-29T01:23:25.715Z,99084.09
2023-08-29T01:24:07.279Z,99085.25
2023-08-29T01:24:56.815Z,99080.66
2023-08-29T01:25:49.318Z,99095.59
2023-08-29T01:26:23.700Z,99091.69
2023-08-29T01:26:57.113Z,99095.28
2023-08-29T01:27:30.127Z,99105.19
2023-08-29T01:28:03.070Z,99101.13
2023-08-29T01:28:35.368Z,99098.34
2023-08-29T01:29:07.725Z,99102.75
2023-08-29T01:29:40.867Z,99098.94
2023-08-29T01:30:13.907Z,99106.13
2023-08-29T01:30:46.956Z,99103.97
2023-08-29T01:31:20.371Z,99096.91
2023-08-29T01:31:52.837Z,99104.69
2023-08-29T01:32:26.593Z,99102.97
2023-08-29T01:32:59.555Z,99103.16
2023-08-29T01:33:31.783Z,99110.13
2023-08-29T01:34:03.756Z,99104.28
2023-08-29T01:34:35.739Z,99106.72
2023-08-29T01:35:08.557Z,99104.59
2023-08-29T01:35:45.491Z,99116.22
2023-08-29T01:36:17.408Z,99114.59
2023-08-29T01:36:49.320Z,99109.59
2023-08-29T01:37:21.298Z,99107.34
2023-08-29T01:37:53.211Z,99096.63
2023-08-29T01:38:25.117Z,99099.38
2023-08-29T01:38:57.056Z,99092.00
2023-08-29T01:39:29.769Z,99085.66
2023-08-29T01:40:01.751Z,99077.38
2023-08-29T01:40:33.687Z,99081.44
2023-08-29T01:41:05.626Z,99078.38
2023-08-29T01:41:37.570Z,99084.53
2023-08-29T01:42:09.536Z,99082.81
2023-08-29T01:42:41.549Z,99089.16
2023-08-29T01:43:13.518Z,99083.72
2023-08-29T01:43:45.435Z,99072.97
2023-08-29T01:44:17.330Z,99081.56
2023-08-29T01:44:49.268Z,99077.19
2023-08-29T01:45:21.342Z,99073.91
2023-08-29T01:45:53.433Z,99077.19
2023-08-29T01:46:25.442Z,99067.84
2023-08-29T01:46:57.357Z,99067.97
2023-08-29T01:47:29.284Z,99062.44
2023-08-29T01:48:01.311Z,99066.34
2023-08-29T01:48:33.560Z,99060.63
2023-08-29T01:49:06.006Z,99056.22
2023-08-29T01:49:38.673Z,99057.53
2023-08-29T01:50:10.875Z,99052.97
2023-08-29T01:50:47.010Z,99047.13
2023-08-29T01:51:18.934Z,99047.75
2023-08-29T01:51:51.003Z,99053.34
2023-08-29T01:52:23.039Z,99051.22
2023-08-29T01:52:55.768Z,99049.56
2023-08-29T01:53:27.836Z,99048.44
2023-08-29T01:53:59.759Z,99052.03
2023-08-29T01:54:31.831Z,99046.72
2023-08-29T01:55:04.184Z,99046.81
2023-08-29T01:55:37.846Z,99044.69
2023-08-29T01:56:12.707Z,99047.44
2023-08-29T01:56:46.818Z,99048.88
2023-08-29T01:57:20.662Z,99053.38
2023-08-29T01:57:53.293Z,99041.22
2023-08-29T01:58:25.965Z,99053.06
2023-08-29T01:58:58.234Z,99052.75
2023-08-29T01:59:31.326Z,99048.88
2023-08-29T02:00:05.419Z,99045.31
2023-08-29T02:00:37.777Z,99052.56
2023-08-29T02:01:22.829Z,99049.59
2023-08-29T02:01:55.717Z,99045.72
2023-08-29T02:02:27.704Z,99050.44
2023-08-29T02:02:59.641Z,99049.06
2023-08-29T02:03:32.040Z,99054.59
2023-08-29T02:04:04.938Z,99044.16
2023-08-29T02:04:36.924Z,99042.22
2023-08-29T02:05:09.088Z,99041.59
2023-08-29T02:05:42.440Z,99039.47
2023-08-29T02:06:15.031Z,99040.78
2023-08-29T02:06:47.000Z,99049.38
2023-08-29T02:07:18.917Z,99046.72
2023-08-29T02:07:51.284Z,99045.59
2023-08-29T02:08:23.272Z,99036.31
2023-08-29T02:08:55.545Z,99043.47
2023-08-29T02:09:27.481Z,99040.19
2023-08-29T02:09:59.401Z,99041.81
2023-08-29T02:10:31.329Z,99037.44
2023-08-29T02:11:03.823Z,99034.16
2023-08-29T02:11:35.763Z,99039.06
2023-08-29T02:12:07.802Z,99039.69
2023-08-29T02:12:39.727Z,99041.00
2023-08-29T02:13:11.647Z,99042.66
2023-08-29T02:13:43.557Z,99038.56
2023-08-29T02:14:15.785Z,99039.38
2023-08-29T02:14:48.682Z,99034.97
2023-08-29T02:15:20.630Z,99039.19
2023-08-29T02:15:52.550Z,99039.69
2023-08-29T02:16:25.929Z,99034.16
2023-08-29T02:16:58.020Z,99044.06
2023-08-29T02:17:30.060Z,99041.81
2023-08-29T02:18:02.071Z,99042.44
2023-08-29T02:18:34.008Z,99047.03
2023-08-29T02:19:06.219Z,99040.91
2023-08-29T02:19:38.138Z,99038.34
2023-08-29T02:20:10.316Z,99039.97
2023-08-29T02:20:42.256Z,99036.69
2023-08-29T02:21:14.607Z,99037.31
2023-08-29T02:21:46.653Z,99026.28
2023-08-29T02:22:18.590Z,99021.28
2023-08-29T02:22:50.598Z,99032.81
2023-08-29T02:23:22.518Z,99021.19
2023-08-29T02:23:54.442Z,99025.59
2023-08-29T02:24:26.412Z,99024.16
2023-08-29T02:24:58.405Z,99015.56
2023-08-29T02:25:30.329Z,99022.22
2023-08-29T02:26:06.288Z,99013.09
2023-08-29T02:26:38.211Z,99025.47
2023-08-29T02:27:10.113Z,99026.91
2023-08-29T02:27:42.044Z,99032.63
2023-08-29T02:28:15.325Z,99035.56
2023-08-29T02:28:47.310Z,99044.16
2023-08-29T02:29:19.237Z,99054.41
2023-08-29T02:29:51.862Z,99055.72
2023-08-29T02:30:25.071Z,99070.03
2023-08-29T02:31:04.120Z,99082.69
2023-08-29T02:31:36.786Z,99083.94
2023-08-29T02:32:08.921Z,99089.78
2023-08-29T02:32:41.391Z,99083.94
2023-08-29T02:33:13.379Z,99085.88
2023-08-29T02:33:45.332Z,99076.28
2023-08-29T02:34:17.491Z,99070.66
2023-08-29T02:34:49.456Z,99065.63
2023-08-29T02:35:21.589Z,99059.28
2023-08-29T02:35:53.527Z,99047.94
2023-08-29T02:36:25.468Z,99049.56
2023-08-29T02:36:57.415Z,99047.13
2023-08-29T02:37:29.330Z,99042.22
2023-08-29T02:38:01.940Z,99047.94
2023-08-29T02:38:35.526Z,99039.66
2023-08-29T02:39:08.761Z,99045.19
2023-08-29T02:39:41.776Z,99041.91
2023-08-29T02:40:13.744Z,99038.03
2023-08-29T02:40:45.665Z,99035.28
2023-08-29T02:41:17.655Z,99027.59
2023-08-29T02:41:49.567Z,99028.44
2023-08-29T02:42:21.474Z,99024.03
2023-08-29T02:42:53.380Z,99017.69
2023-08-29T02:43:25.274Z,99016.06
2023-08-29T02:43:57.175Z,99015.75
2023-08-29T02:44:29.102Z,99011.97
2023-08-29T02:45:01.051Z,99011.16
2023-08-29T02:45:32.965Z,99010.66
2023-08-29T02:46:05.065Z,99020.25
2023-08-29T02:46:37.064Z,99024.47
2023-08-29T02:47:09.002Z,99035.50
2023-08-29T02:47:40.960Z,99030.28
2023-08-29T02:48:13.021Z,99029.97
2023-08-29T02:48:45.566Z,99032.22
2023-08-29T02:49:17.502Z,99041.84
2023-08-29T02:49:49.417Z,99038.56
2023-08-29T02:50:21.337Z,99030.56
2023-08-29T02:50:53.257Z,99023.94
2023-08-29T02:51:25.174Z,99013.72
2023-08-29T02:51:58.032Z,99015.66
2023-08-29T02:52:30.020Z,98998.56
2023-08-29T02:53:02.021Z,98995.81
2023-08-29T02:53:33.928Z,98991.44
2023-08-29T02:54:05.889Z,98991.94
2023-08-29T02:54:37.843Z,98984.50
2023-08-29T02:55:10.143Z,98989.47
2023-08-29T02:55:42.148Z,98994.69
2023-08-29T02:56:14.095Z,98998.56
2023-08-29T02:56:45.990Z,98993.69
2023-08-29T02:57:17.929Z,98988.66
2023-08-29T02:57:49.882Z,98989.47
2023-08-29T02:58:21.876Z,98996.44
2023-08-29T02:58:55.693Z,98993.06
2023-08-29T02:59:28.093Z,98996.34
2023-08-29T02:59:59.987Z,99000.13
2023-08-29T03:00:31.943Z,99004.00
2023-08-29T03:01:05.050Z,99003.81
2023-08-29T03:01:37.241Z,99008.22
2023-08-29T03:02:09.294Z,99007.41
2023-08-29T03:02:41.279Z,99007.91
2023-08-29T03:03:14.725Z,99005.66
2023-08-29T03:03:46.960Z,99012.28
2023-08-29T03:04:19.030Z,99006.25
2023-08-29T03:04:50.927Z,99004.00
2023-08-29T03:05:23.143Z,99008.72
2023-08-29T03:05:56.700Z,99009.53
2023-08-29T03:06:28.634Z,99004.81
2023-08-29T03:07:00.561Z,99018.44
2023-08-29T03:07:32.744Z,99017.81
2023-08-29T03:08:05.820Z,99022.22
2023-08-29T03:08:38.133Z,99021.59
2023-08-29T03:09:10.034Z,99016.69
2023-08-29T03:09:41.948Z,99023.84
2023-08-29T03:10:13.891Z,99029.34
2023-08-29T03:10:45.816Z,99022.41
2023-08-29T03:11:18.201Z,99030.16
2023-08-29T03:11:50.170Z,99023.22
2023-08-29T03:12:22.083Z,99023.22
2023-08-29T03:12:54.270Z,99017.69
2023-08-29T03:13:26.246Z,99019.13
2023-08-29T03:13:58.230Z,99020.47
2023-08-29T03:14:30.146Z,99014.13
2023-08-29T03:15:02.091Z,99014.44
2023-08-29T03:15:34.725Z,99017.19
2023-08-29T03:16:18.851Z,99018.63
2023-08-29T03:16:52.170Z,99031.81
2023-08-29T03:17:24.304Z,99015.56
2023-08-29T03:17:56.330Z,99026.28
2023-08-29T03:18:28.805Z,99022.72
2023-08-29T03:19:00.724Z,99023.03
2023-08-29T03:19:32.638Z,99022.50
2023-08-29T03:20:06.395Z,99028.84
2023-08-29T03:20:44.748Z,99025.59
2023-08-29T03:21:16.673Z,99022.22
2023-08-29T03:21:48.610Z,99031.91
2023-08-29T03:22:20.560Z,99033.25
2023-08-29T03:22:53.625Z,99034.44
2023-08-29T03:23:25.940Z,99035.50
2023-08-29T03:23:57.839Z,99030.78
2023-08-29T03:24:29.940Z,99035.50
2023-08-29T03:25:01.848Z,99036.09
2023-08-29T03:25:33.801Z,99033.88
2023-08-29T03:26:09.585Z,99029.97
2023-08-29T03:26:42.897Z,99036.09
2023-08-29T03:27:15.200Z,99039.97
2023-08-29T03:27:47.152Z,99036.41
2023-08-29T03:28:19.053Z,99029.47
2023-08-29T03:28:50.951Z,99034.75
2023-08-29T03:29:22.850Z,99026.28
2023-08-29T03:29:55.426Z,99026.47
2023-08-29T03:30:28.425Z,99034.44
2023-08-29T03:31:20.611Z,99029.88
2023-08-29T03:31:52.564Z,99035.06
2023-08-29T03:32:24.528Z,99033.25
2023-08-29T03:32:56.612Z,99020.78
2023-08-29T03:33:28.673Z,99020.78
2023-08-29T03:34:00.725Z,99034.88
2023-08-29T03:34:32.631Z,99025.47
2023-08-29T03:35:04.760Z,99033.13
2023-08-29T03:35:36.992Z,99025.47
2023-08-29T03:36:09.235Z,99028.22
2023-08-29T03:36:41.671Z,99025.78
2023-08-29T03:37:13.593Z,99027.72
2023-08-29T03:37:46.012Z,99025.28
2023-08-29T03:38:17.914Z,99028.03
2023-08-29T03:38:49.816Z,99017.31
2023-08-29T03:39:21.760Z,99026.09
2023-08-29T03:39:56.276Z,99027.00
2023-08-29T03:40:28.172Z,99024.25
2023-08-29T03:41:00.214Z,99032.53
2023-08-29T03:41:32.132Z,99030.59
2023-08-29T03:42:04.306Z,99025.88
2023-08-29T03:42:36.205Z,99026.50
2023-08-29T03:43:08.109Z,99024.41
2023-08-29T03:43:40.064Z,99020.53
2023-08-29T03:44:13.414Z,99023.59
2023-08-29T03:44:45.337Z,99019.50
2023-08-29T03:45:17.337Z,99015.75
2023-08-29T03:45:56.729Z,99011.66
2023-08-29T03:46:29.194Z,99021.06
2023-08-29T03:47:01.191Z,99012.47
2023-08-29T03:47:34.728Z,99011.16
2023-08-29T03:48:12.656Z,99005.63
2023-08-29T03:48:51.375Z,99019.09
2023-08-29T03:49:23.273Z,99015.84
2023-08-29T03:49:55.187Z,99015.03
2023-08-29T03:50:27.171Z,99010.31
2023-08-29T03:51:08.345Z,99015.84
2023-08-29T03:51:40.428Z,99009.59
2023-08-29T03:52:12.437Z,99008.38
2023-08-29T03:52:44.365Z,99006.13
2023-08-29T03:53:16.254Z,99006.13
2023-08-29T03:53:48.154Z,98995.78
2023-08-29T03:54:20.066Z,99003.75
2023-08-29T03:54:54.116Z,98997.44
2023-08-29T03:55:26.054Z,98994.16
2023-08-29T03:56:01.614Z,98995.78
2023-08-29T03:56:34.821Z,98994.47
2023-08-29T03:57:06.761Z,98994.47
2023-08-29T03:57:39.418Z,98993.97
2023-08-29T03:58:11.380Z,98989.25
2023-08-29T03:58:43.308Z,98996.41
2023-08-29T03:59:15.198Z,98998.47
2023-08-29T03:59:47.094Z,98999.28
2023-08-29T04:00:19.127Z,98994.56
2023-08-29T04:00:51.128Z,98997.03
2023-08-29T04:01:23.221Z,98984.78
2023-08-29T04:01:55.246Z,98987.53
2023-08-29T04:02:27.148Z,98989.75
2023-08-29T04:03:00.891Z,98985.91
2023-08-29T04:03:33.456Z,98988.34
2023-08-29T04:04:05.920Z,98990.28
2023-08-29T04:04:38.287Z,98994.16
2023-08-29T04:05:17.296Z,98990.88
2023-08-29T04:05:49.601Z,98995.56
2023-08-29T04:06:22.252Z,99001.31
2023-08-29T04:06:54.357Z,98997.50
2023-08-29T04:07:26.297Z,98993.13
2023-08-29T04:07:58.213Z,98994.75
2023-08-29T04:08:30.127Z,98998.31
2023-08-29T04:09:04.590Z,99001.69
2023-08-29T04:09:36.517Z,98995.16
2023-08-29T04:10:08.780Z,98990.66
2023-08-29T04:10:41.686Z,98987.59
2023-08-29T04:11:13.688Z,98983.72
2023-08-29T04:11:45.602Z,98983.72
2023-08-29T04:12:17.574Z,98986.72
2023-08-29T04:12:49.523Z,98988.34
2023-08-29T04:13:21.430Z,98983.97
2023-08-29T04:13:53.425Z,98980.91
2023-08-29T04:14:25.333Z,98987.00
2023-08-29T04:14:57.251Z,98985.09
2023-08-29T04:15:29.160Z,98985.34
2023-08-29T04:16:04.851Z,98986.78
2023-08-29T04:16:36.920Z,98987.28
2023-08-29T04:17:08.942Z,98994.16
2023-08-29T04:17:41.177Z,98997.44
2023-08-29T04:18:13.258Z,98989.69
2023-08-29T04:18:45.184Z,98999.28
2023-08-29T04:19:17.896Z,98996.72
2023-08-29T04:19:49.809Z,99009.06
2023-08-29T04:20:22.691Z,99012.84
2023-08-29T04:20:54.583Z,99008.25
2023-08-29T04:21:26.604Z,99009.69
2023-08-29T04:21:58.504Z,99018.47
2023-08-29T04:22:30.665Z,99015.09
2023-08-29T04:23:04.849Z,99020.09
2023-08-29T04:23:36.743Z,99014.06
2023-08-29T04:24:08.684Z,99016.03
2023-08-29T04:24:40.656Z,99028.06
2023-08-29T04:25:12.595Z,99027.75
2023-08-29T04:25:44.515Z,99022.56
2023-08-29T04:26:16.405Z,99025.25
2023-08-29T04:26:48.310Z,99031.03
2023-08-29T04:27:20.335Z,99033.59
2023-08-29T04:27:52.321Z,99031.56
2023-08-29T04:28:24.253Z,99037.28
2023-08-29T04:28:56.152Z,99042.31
2023-08-29T04:29:28.051Z,99045.63
2023-08-29T04:30:01.084Z,99047.88
2023-08-29T04:30:33.069Z,99054.97
2023-08-29T04:31:11.555Z,99050.56
2023-08-29T04:31:44.763Z,99046.06
2023-08-29T04:32:16.756Z,99047.72
2023-08-29T04:32:54.636Z,99054.34
2023-08-29T04:33:26.796Z,99055.47
2023-08-29T04:34:00.868Z,99045.47
2023-08-29T04:34:32.813Z,99043.22
2023-08-29T04:35:07.284Z,99042.09
2023-08-29T04:35:39.362Z,99037.69
2023-08-29T04:36:12.454Z,99039.63
2023-08-29T04:36:46.447Z,99038.31
2023-08-29T04:37:18.458Z,99035.25
2023-08-29T04:37:50.504Z,99036.38
2023-08-29T04:38:22.418Z,99042.41
2023-08-29T04:38:55.122Z,99036.69
2023-08-29T04:39:27.050Z,99047.72
2023-08-29T04:39:58.996Z,99036.16
2023-08-29T04:40:30.981Z,99043.00
2023-08-29T04:41:02.978Z,99041.88
2023-08-29T04:41:34.877Z,99039.63
2023-08-29T04:42:06.788Z,99043.53
2023-08-29T04:42:39.161Z,99047.59
2023-08-29T04:43:11.068Z,99044.84
2023-08-29T04:43:42.994Z,99052.00
2023-08-29T04:44:14.906Z,99051.50
2023-08-29T04:44:48.179Z,99054.25
2023-08-29T04:45:20.605Z,99044.66
2023-08-29T04:45:53.632Z,99048.72
2023-08-29T04:46:26.401Z,99051.78
2023-08-29T04:46:58.314Z,99050.69
2023-08-29T04:47:30.256Z,99050.38
2023-08-29T04:48:02.277Z,99054.44
2023-08-29T04:48:34.776Z,99052.19
2023-08-29T04:49:06.680Z,99057.22
2023-08-29T04:49:38.585Z,99049.34
2023-08-29T04:50:10.504Z,99054.88
2023-08-29T04:50:42.556Z,99051.78
2023-08-29T04:51:14.516Z,99062.84
2023-08-29T04:51:46.623Z,99055.56
2023-08-29T04:52:18.573Z,99057.31
2023-08-29T04:52:54.922Z,99059.75
2023-08-29T04:53:26.991Z,99059.16
2023-08-29T04:53:59.089Z,99060.28
2023-08-29T04:54:31.153Z,99061.91
2023-08-29T04:55:03.158Z,99064.31
2023-08-29T04:55:35.082Z,99064.00
2023-08-29T04:56:07.095Z,99069.22
2023-08-29T04:56:39.003Z,99056.03
2023-08-29T04:57:11.020Z,99066.16
2023-08-29T04:57:42.918Z,99057.06
2023-08-29T04:58:14.821Z,99065.84
2023-08-29T04:58:46.773Z,99061.97
2023-08-29T04:59:18.676Z,99063.09
2023-08-29T04:59:50.660Z,99060.03
2023-08-29T05:00:22.559Z,99056.75
2023-08-29T05:00:54.733Z,99065.53
2023-08-29T05:01:26.663Z,99060.03
2023-08-29T05:01:58.635Z,99056.94
2023-08-29T05:02:30.555Z,99056.84
2023-08-29T05:03:05.515Z,99070.63
2023-08-29T05:03:37.614Z,99072.50
2023-08-29T05:04:10.591Z,99069.50
2023-08-29T05:04:46.888Z,99076.38
2023-08-29T05:05:19.845Z,99078.84
2023-08-29T05:05:53.571Z,99074.13
2023-08-29T05:06:26.526Z,99079.66
2023-08-29T05:06:59.151Z,99074.44
2023-08-29T05:07:31.196Z,99072.19
2023-08-29T05:08:05.497Z,99074.84
2023-08-29T05:08:38.021Z,99062.06
2023-08-29T05:09:10.852Z,99067.78
2023-08-29T05:09:43.170Z,99067.56
2023-08-29T05:10:15.164Z,99062.38
2023-08-29T05:10:47.410Z,99071.47
2023-08-29T05:11:19.353Z,99068.41
2023-08-29T05:11:51.442Z,99074.72
2023-08-29T05:12:23.484Z,99067.28
2023-08-29T05:12:55.391Z,99077.19
2023-08-29T05:13:27.297Z,99077.38
2023-08-29T05:13:59.391Z,99083.53
2023-08-29T05:14:31.292Z,99082.19
2023-08-29T05:15:03.504Z,99078.81
2023-08-29T05:15:35.488Z,99077.19
2023-08-29T05:16:07.436Z,99076.69
2023-08-29T05:16:39.357Z,99071.97
2023-08-29T05:17:11.491Z,99070.84
2023-08-29T05:17:43.506Z,99066.13
2023-08-29T05:18:15.525Z,99076.56
2023-08-29T05:18:47.811Z,99064.19
2023-08-29T05:19:19.704Z,99067.47
2023-08-29T05:19:52.723Z,99071.03
2023-08-29T05:20:24.624Z,99077.19
2023-08-29T05:20:57.299Z,99079.94
2023-08-29T05:21:29.205Z,99080.75
2023-08-29T05:22:01.127Z,99075.03
2023-08-29T05:22:33.033Z,99081.69
2023-08-29T05:23:05.354Z,99078.94
2023-08-29T05:23:37.636Z,99082.19
2023-08-29T05:24:09.653Z,99079.94
2023-08-29T05:24:41.588Z,99082.19
2023-08-29T05:25:13.547Z,99079.94
2023-08-29T05:25:45.474Z,99075.75
2023-08-29T05:26:17.418Z,99084.66
2023-08-29T05:26:49.855Z,99082.81
2023-08-29T05:27:21.862Z,99087.72
2023-08-29T05:27:53.775Z,99089.34
2023-08-29T05:28:25.713Z,99089.34
2023-08-29T05:28:57.888Z,99105.00
2023-08-29T05:29:29.835Z,99101.13
2023-08-29T05:30:01.748Z,99108.28
2023-08-29T05:30:36.348Z,99101.13
2023-08-29T05:31:08.319Z,99104.19
2023-08-29T05:31:40.281Z,99098.34
2023-08-29T05:32:12.254Z,99102.75
2023-08-29T05:32:44.187Z,99103.78
2023-08-29T05:33:16.090Z,99094.38
2023-08-29T05:33:48.013Z,99094.38
2023-08-29T05:34:20.155Z,99093.75
2023-08-29T05:34:52.129Z,99093.13
2023-08-29T05:35:24.281Z,99093.44
2023-08-29T05:35:56.193Z,99094.06
2023-08-29T05:36:28.355Z,99081.06
2023-08-29T05:37:00.303Z,99087.91
2023-08-29T05:37:32.208Z,99093.13
2023-08-29T05:38:05.214Z,99089.84
2023-08-29T05:38:37.407Z,99100.91
2023-08-29T05:39:09.354Z,99093.66
2023-08-29T05:39:41.297Z,99097.00
2023-08-29T05:40:13.260Z,99091.50
2023-08-29T05:40:45.165Z,99095.59
2023-08-29T05:41:17.079Z,99090.91
2023-08-29T05:41:49.040Z,99088.66
2023-08-29T05:42:20.993Z,99083.63
2023-08-29T05:42:52.898Z,99090.16
2023-08-29T05:43:24.800Z,99088.22
2023-08-29T05:43:56.710Z,99092.94
2023-08-29T05:44:28.665Z,99093.13
2023-08-29T05:45:00.623Z,99079.63
2023-08-29T05:45:32.555Z,99083.22
2023-08-29T05:46:04.474Z,99083.72
2023-08-29T05:46:36.446Z,99077.88
2023-08-29T05:47:08.427Z,99079.00
2023-08-29T05:47:40.384Z,99076.13
2023-08-29T05:48:12.543Z,99078.31
2023-08-29T05:48:45.377Z,99076.03
2023-08-29T05:49:17.303Z,99074.91
2023-08-29T05:49:49.272Z,99079.00
2023-08-29T05:50:21.166Z,99081.44
2023-08-29T05:50:53.140Z,99083.09
2023-08-29T05:51:25.069Z,99069.81
2023-08-29T05:51:56.983Z,99076.84
2023-08-29T05:52:29.646Z,99083.81
2023-08-29T05:53:01.640Z,99079.41
2023-08-29T05:53:33.610Z,99074.94
2023-08-29T05:54:06.237Z,99082.78
2023-08-29T05:54:38.270Z,99075.81
2023-08-29T05:55:10.230Z,99075.50
2023-08-29T05:55:42.156Z,99077.97
2023-08-29T05:56:14.303Z,99078.16
2023-08-29T05:56:46.229Z,99080.91
2023-08-29T05:57:18.143Z,99081.13
2023-08-29T05:57:50.065Z,99088.56
2023-08-29T05:58:23.057Z,99076.41
2023-08-29T05:58:54.992Z,99074.75
2023-08-29T05:59:27.268Z,99077.50
2023-08-29T05:59:59.166Z,99071.41
2023-08-29T06:00:31.169Z,99069.94
2023-08-29T06:01:03.681Z,99069.31
2023-08-29T06:01:36.530Z,99069.00
2023-08-29T06:02:08.483Z,99073.72
2023-08-29T06:02:40.455Z,99074.03
2023-08-29T06:03:13.135Z,99072.41
2023-08-29T06:03:45.106Z,99076.28
2023-08-29T06:04:17.037Z,99074.66
2023-08-29T06:04:49.325Z,99071.78
2023-08-29T06:05:21.242Z,99071.13
2023-08-29T06:05:53.328Z,99066.75
2023-08-29T06:06:25.280Z,99076.84
2023-08-29T06:06:57.203Z,99066.63
2023-08-29T06:07:29.112Z,99065.47
2023-08-29T06:08:12.971Z,99066.63
2023-08-29T06:08:49.229Z,99053.94
2023-08-29T06:09:21.625Z,99058.31
2023-08-29T06:09:53.591Z,99060.28
2023-08-29T06:10:25.511Z,99056.38
2023-08-29T06:10:57.444Z,99063.84
2023-08-29T06:11:30.386Z,99054.13
2023-08-29T06:12:02.307Z,99061.00
2023-08-29T06:12:34.245Z,99061.31
2023-08-29T06:13:06.197Z,99066.84
2023-08-29T06:13:38.143Z,99063.75
2023-08-29T06:14:10.045Z,99063.75
2023-08-29T06:14:41.977Z,99065.88
2023-08-29T06:15:13.959Z,99062.50
2023-08-29T06:15:45.931Z,99062.50
2023-08-29T06:16:17.903Z,99071.59
2023-08-29T06:16:49.974Z,99067.69
2023-08-29T06:17:21.945Z,99064.13
2023-08-29T06:17:53.950Z,99067.38
2023-08-29T06:18:25.889Z,99064.00
2023-08-29T06:18:57.854Z,99071.72
2023-08-29T06:19:29.744Z,99072.53
2023-08-29T06:20:01.647Z,99076.63
2023-08-29T06:20:33.618Z,99064.75
2023-08-29T06:21:06.436Z,99076.44
2023-08-29T06:21:40.031Z,99074.31
2023-08-29T06:22:15.116Z,99075.41
2023-08-29T06:22:47.406Z,99074.00
2023-08-29T06:23:19.499Z,99079.03
2023-08-29T06:23:51.533Z,99075.84
2023-08-29T06:24:23.433Z,99084.44
2023-08-29T06:24:56.137Z,99082.19
2023-08-29T06:25:29.018Z,99081.06